Taiwan Taoyuan International Airport
RCTP : now visible

Airfield :











YOU CAN JOIN US ON...

 
LOGIN :

Register | Disclaimer

   EN    FR    IT 

 









Legend :    VFR   Marginal VFR   IFR   Intensive IFR   Very Intensive IFR
Visi :
Ceiling :
>= 8 km
>= 3000ft
5 to 8 km
1000 to 3000 ft
1500m to 5 km
500 to 1000 ft
800 to 1500m
200 to 500 ft
< 800m
< 200 ft
Symbols :   Thunderstorms  Fog  Heavy snow  Heavy precipitations  Wind > 20 kt






- Airport Elevation : 106 ft
- IATA code : TPE


RCTP - Taiwan Taoyuan International

CURRENT METAR :
  • 180200Z 07011KT 9999 FEW015 BKN035 25/19 Q1019 NOSIG RMK A3010

EXPIRED METARs :
  • 180130Z 06014KT 9999 FEW015 BKN035 23/18 Q1019 NOSIG RMK A3010
  • 180100Z 06011KT 9999 FEW015 BKN035 23/18 Q1019 NOSIG RMK A3009
  • 180030Z 08011KT 9999 SCT012 BKN025 23/18 Q1019 NOSIG RMK A3009
  • 180000Z 08008KT 060V120 9999 SCT012 BKN025 23/17 Q1018 NOSIG RMK A3008
  • 172330Z 09007KT 9999 SCT012 BKN025 23/17 Q1018 NOSIG RMK A3007

TAF TAF RCTP
Valid from the 18 at 00:00 until the 19 at 06:00 UTC


172300Z 1800/1906 08010KT 9999 FEW020 SCT050
TEMPO 1804/1810 05020KT FEW015 BKN032
TEMPO 1820/1902 04015KT FEW012 BKN022 BKN050
BECMG 1902/1904 05018KT



MET'MAP, your aeronautical weather chart ! - Copyright ORBIFLY December 2007 - Disclaimer

ORBIFLY MET'MAP TEAM :

Programming & Development : Alexandra Zaïnal
Concept & Development : Baudouin d'Aumeries
Co-Development & Prog : Marc-Olivier Méhu
Technical & hardware support : Manuel Goepfert

Contact : metmap@orbifly.com




SOURCES & CREDITS :

   NOAA       Earth
Advisory